sensor_id;sensor_type;location;lat;lon;timestamp;pressure;altitude;pressure_sealevel;temperature;humidity
29163;BME280;20331;53.144;8.208;2023-11-19T00:04:30;100670.25;;;8.83;100.00
29163;BME280;20331;53.144;8.208;2023-11-19T00:09:52;100659.78;;;8.89;100.00
29163;BME280;20331;53.144;8.208;2023-11-19T00:15:14;100656.16;;;8.96;100.00
29163;BME280;20331;53.144;8.208;2023-11-19T00:20:36;100650.84;;;9.02;100.00
29163;BME280;20331;53.144;8.208;2023-11-19T00:25:58;100648.09;;;9.07;100.00
29163;BME280;20331;53.144;8.208;2023-11-19T00:31:20;100644.41;;;9.17;100.00
29163;BME280;20331;53.144;8.208;2023-11-19T00:36:41;100625.34;;;9.21;100.00
29163;BME280;20331;53.144;8.208;2023-11-19T00:42:03;100614.78;;;9.30;100.00
29163;BME280;20331;53.144;8.208;2023-11-19T00:47:25;100599.94;;;9.37;100.00
29163;BME280;20331;53.144;8.208;2023-11-19T00:52:47;100586.66;;;9.50;100.00
29163;BME280;20331;53.144;8.208;2023-11-19T00:58:08;100578.66;;;9.58;100.00
29163;BME280;20331;53.144;8.208;2023-11-19T01:03:30;100560.50;;;9.61;100.00
29163;BME280;20331;53.144;8.208;2023-11-19T01:08:52;100571.47;;;9.67;100.00
29163;BME280;20331;53.144;8.208;2023-11-19T01:14:14;100565.28;;;9.73;100.00
29163;BME280;20331;53.144;8.208;2023-11-19T01:19:36;100550.44;;;9.79;100.00
29163;BME280;20331;53.144;8.208;2023-11-19T01:24:57;100545.56;;;9.96;100.00
29163;BME280;20331;53.144;8.208;2023-11-19T01:30:19;100537.69;;;10.01;100.00
29163;BME280;20331;53.144;8.208;2023-11-19T01:35:41;100527.16;;;10.07;100.00
29163;BME280;20331;53.144;8.208;2023-11-19T01:41:03;100537.28;;;10.13;100.00
29163;BME280;20331;53.144;8.208;2023-11-19T01:46:25;100516.31;;;10.22;100.00
29163;BME280;20331;53.144;8.208;2023-11-19T01:51:48;100511.69;;;10.32;100.00
29163;BME280;20331;53.144;8.208;2023-11-19T01:57:10;100501.06;;;10.39;100.00
29163;BME280;20331;53.144;8.208;2023-11-19T02:02:32;100497.38;;;10.46;100.00
29163;BME280;20331;53.144;8.208;2023-11-19T02:07:54;100485.81;;;10.56;100.00
29163;BME280;20331;53.144;8.208;2023-11-19T02:13:15;100488.13;;;10.64;100.00
29163;BME280;20331;53.144;8.208;2023-11-19T02:18:38;100477.53;;;10.70;100.00
29163;BME280;20331;53.144;8.208;2023-11-19T02:24:05;100481.78;;;10.72;100.00
29163;BME280;20331;53.144;8.208;2023-11-19T02:29:30;100470.22;;;10.81;100.00
29163;BME280;20331;53.144;8.208;2023-11-19T02:34:52;100462.97;;;10.90;100.00
29163;BME280;20331;53.144;8.208;2023-11-19T02:40:14;100456.88;;;10.91;100.00
29163;BME280;20331;53.144;8.208;2023-11-19T02:45:36;100445.22;;;11.03;100.00
29163;BME280;20331;53.144;8.208;2023-11-19T02:50:58;100430.19;;;11.12;100.00
29163;BME280;20331;53.144;8.208;2023-11-19T02:56:19;100426.59;;;11.17;100.00
29163;BME280;20331;53.144;8.208;2023-11-19T03:01:47;100422.72;;;11.27;100.00
29163;BME280;20331;53.144;8.208;2023-11-19T03:07:11;100426.09;;;11.29;100.00
29163;BME280;20331;53.144;8.208;2023-11-19T03:12:34;100424.94;;;11.36;100.00
29163;BME280;20331;53.144;8.208;2023-11-19T03:17:56;100427.66;;;11.33;100.00
29163;BME280;20331;53.144;8.208;2023-11-19T03:23:19;100422.06;;;11.43;100.00
29163;BME280;20331;53.144;8.208;2023-11-19T03:28:40;100415.91;;;11.46;100.00
29163;BME280;20331;53.144;8.208;2023-11-19T03:34:02;100406.06;;;11.54;100.00
29163;BME280;20331;53.144;8.208;2023-11-19T03:39:24;100401.44;;;11.62;100.00
29163;BME280;20331;53.144;8.208;2023-11-19T03:44:46;100386.44;;;11.70;100.00
29163;BME280;20331;53.144;8.208;2023-11-19T03:50:08;100397.31;;;11.78;100.00
29163;BME280;20331;53.144;8.208;2023-11-19T03:55:30;100396.44;;;11.79;100.00
29163;BME280;20331;53.144;8.208;2023-11-19T04:00:52;100402.09;;;11.88;100.00
29163;BME280;20331;53.144;8.208;2023-11-19T04:06:14;100395.66;;;11.97;100.00
29163;BME280;20331;53.144;8.208;2023-11-19T04:11:36;100404.91;;;12.02;100.00
29163;BME280;20331;53.144;8.208;2023-11-19T04:16:57;100392.81;;;12.03;100.00
29163;BME280;20331;53.144;8.208;2023-11-19T04:22:19;100394.22;;;12.10;100.00
29163;BME280;20331;53.144;8.208;2023-11-19T04:27:41;100377.63;;;12.14;100.00
29163;BME280;20331;53.144;8.208;2023-11-19T04:33:02;100360.34;;;12.13;100.00
29163;BME280;20331;53.144;8.208;2023-11-19T04:38:24;100363.47;;;12.21;100.00
29163;BME280;20331;53.144;8.208;2023-11-19T04:43:48;100366.69;;;12.26;100.00
29163;BME280;20331;53.144;8.208;2023-11-19T04:49:10;100354.34;;;12.31;100.00
29163;BME280;20331;53.144;8.208;2023-11-19T04:54:44;100364.88;;;12.28;100.00
29163;BME280;20331;53.144;8.208;2023-11-19T05:00:06;100355.63;;;12.23;100.00
29163;BME280;20331;53.144;8.208;2023-11-19T05:05:31;100352.03;;;12.25;100.00
29163;BME280;20331;53.144;8.208;2023-11-19T05:10:53;100356.06;;;12.32;100.00
29163;BME280;20331;53.144;8.208;2023-11-19T05:16:15;100348.38;;;12.29;100.00
29163;BME280;20331;53.144;8.208;2023-11-19T05:21:37;100350.53;;;12.40;100.00
29163;BME280;20331;53.144;8.208;2023-11-19T05:26:58;100369.66;;;12.37;100.00
29163;BME280;20331;53.144;8.208;2023-11-19T05:32:20;100362.75;;;12.36;100.00
29163;BME280;20331;53.144;8.208;2023-11-19T05:37:42;100377.94;;;12.45;100.00
29163;BME280;20331;53.144;8.208;2023-11-19T05:43:04;100378.78;;;12.46;100.00
29163;BME280;20331;53.144;8.208;2023-11-19T05:48:26;100378.78;;;12.46;100.00
29163;BME280;20331;53.144;8.208;2023-11-19T05:53:49;100374.28;;;12.49;100.00
29163;BME280;20331;53.144;8.208;2023-11-19T05:59:11;100388.13;;;12.50;100.00
29163;BME280;20331;53.144;8.208;2023-11-19T06:04:37;100402.19;;;12.44;100.00
29163;BME280;20331;53.144;8.208;2023-11-19T06:09:58;100402.84;;;12.49;100.00
29163;BME280;20331;53.144;8.208;2023-11-19T06:15:20;100394.94;;;12.52;100.00
29163;BME280;20331;53.144;8.208;2023-11-19T06:20:43;100402.84;;;12.49;100.00
29163;BME280;20331;53.144;8.208;2023-11-19T06:26:05;100384.41;;;12.55;100.00
29163;BME280;20331;53.144;8.208;2023-11-19T06:31:26;100402.41;;;12.58;100.00
29163;BME280;20331;53.144;8.208;2023-11-19T06:36:48;100405.72;;;12.62;100.00
29163;BME280;20331;53.144;8.208;2023-11-19T06:42:10;100397.44;;;12.54;100.00
29163;BME280;20331;53.144;8.208;2023-11-19T06:47:32;100404.91;;;12.61;100.00
29163;BME280;20331;53.144;8.208;2023-11-19T06:52:53;100424.25;;;12.54;100.00
29163;BME280;20331;53.144;8.208;2023-11-19T06:58:15;100397.94;;;12.43;100.00
29163;BME280;20331;53.144;8.208;2023-11-19T07:03:36;100410.06;;;12.43;100.00
29163;BME280;20331;53.144;8.208;2023-11-19T07:08:58;100419.72;;;12.39;100.00
29163;BME280;20331;53.144;8.208;2023-11-19T07:14:20;100421.41;;;12.40;100.00
29163;BME280;20331;53.144;8.208;2023-11-19T07:19:41;100427.25;;;12.45;100.00
29163;BME280;20331;53.144;8.208;2023-11-19T07:25:03;100426.47;;;12.43;100.00
29163;BME280;20331;53.144;8.208;2023-11-19T07:30:25;100430.59;;;12.47;100.00
29163;BME280;20331;53.144;8.208;2023-11-19T07:35:47;100432.63;;;12.41;100.00
29163;BME280;20331;53.144;8.208;2023-11-19T07:41:09;100436.72;;;12.46;100.00
29163;BME280;20331;53.144;8.208;2023-11-19T07:46:35;100448.13;;;12.42;100.00
29163;BME280;20331;53.144;8.208;2023-11-19T07:51:57;100441.47;;;12.37;100.00
29163;BME280;20331;53.144;8.208;2023-11-19T07:57:18;100447.50;;;12.37;100.00
29163;BME280;20331;53.144;8.208;2023-11-19T08:02:40;100466.44;;;12.39;100.00
29163;BME280;20331;53.144;8.208;2023-11-19T08:08:02;100477.53;;;12.43;100.00
29163;BME280;20331;53.144;8.208;2023-11-19T08:13:24;100478.50;;;12.40;100.00
29163;BME280;20331;53.144;8.208;2023-11-19T08:18:46;100479.19;;;12.44;100.00
29163;BME280;20331;53.144;8.208;2023-11-19T08:24:08;100479.91;;;12.47;100.00
29163;BME280;20331;53.144;8.208;2023-11-19T08:29:30;100490.97;;;12.52;100.00
29163;BME280;20331;53.144;8.208;2023-11-19T08:34:51;100493.41;;;12.55;100.00
29163;BME280;20331;53.144;8.208;2023-11-19T08:40:13;100490.81;;;12.55;100.00
29163;BME280;20331;53.144;8.208;2023-11-19T08:45:38;100500.66;;;12.47;100.00
29163;BME280;20331;53.144;8.208;2023-11-19T08:51:00;100494.72;;;12.45;100.00
29163;BME280;20331;53.144;8.208;2023-11-19T08:56:21;100503.25;;;12.47;100.00
29163;BME280;20331;53.144;8.208;2023-11-19T09:01:43;100513.59;;;12.49;100.00
29163;BME280;20331;53.144;8.208;2023-11-19T09:07:05;100515.28;;;12.50;100.00
29163;BME280;20331;53.144;8.208;2023-11-19T09:12:27;100509.38;;;12.46;100.00
29163;BME280;20331;53.144;8.208;2023-11-19T09:17:48;100510.94;;;12.50;100.00
29163;BME280;20331;53.144;8.208;2023-11-19T09:23:10;100519.50;;;12.52;100.00
29163;BME280;20331;53.144;8.208;2023-11-19T09:28:33;100518.44;;;12.56;100.00
29163;BME280;20331;53.144;8.208;2023-11-19T09:33:55;100521.03;;;12.56;100.00
29163;BME280;20331;53.144;8.208;2023-11-19T09:39:17;100511.72;;;12.52;100.00
29163;BME280;20331;53.144;8.208;2023-11-19T09:44:40;100518.09;;;12.45;100.00
29163;BME280;20331;53.144;8.208;2023-11-19T09:50:04;100525.00;;;12.25;100.00
29163;BME280;20331;53.144;8.208;2023-11-19T09:55:26;100525.50;;;12.12;100.00
29163;BME280;20331;53.144;8.208;2023-11-19T10:00:49;100540.50;;;12.06;100.00
29163;BME280;20331;53.144;8.208;2023-11-19T10:06:31;100542.28;;;12.04;100.00
29163;BME280;20331;53.144;8.208;2023-11-19T10:11:52;100543.97;;;12.05;100.00
29163;BME280;20331;53.144;8.208;2023-11-19T10:17:14;100537.34;;;11.98;100.00
29163;BME280;20331;53.144;8.208;2023-11-19T10:22:39;100529.78;;;11.93;100.00
29163;BME280;20331;53.144;8.208;2023-11-19T10:28:01;100540.00;;;11.96;100.00
29163;BME280;20331;53.144;8.208;2023-11-19T10:33:22;100528.78;;;11.96;100.00
29163;BME280;20331;53.144;8.208;2023-11-19T10:38:54;100529.50;;;11.99;100.00
29163;BME280;20331;53.144;8.208;2023-11-19T10:44:33;100530.28;;;12.01;100.00
29163;BME280;20331;53.144;8.208;2023-11-19T10:49:57;100527.59;;;12.04;100.00
29163;BME280;20331;53.144;8.208;2023-11-19T10:55:21;100533.25;;;12.14;100.00
29163;BME280;20331;53.144;8.208;2023-11-19T11:00:53;100530.38;;;12.20;100.00
29163;BME280;20331;53.144;8.208;2023-11-19T11:06:15;100529.34;;;12.24;100.00
29163;BME280;20331;53.144;8.208;2023-11-19T11:11:39;100518.59;;;12.33;100.00
29163;BME280;20331;53.144;8.208;2023-11-19T11:17:02;100515.94;;;12.35;100.00
29163;BME280;20331;53.144;8.208;2023-11-19T11:22:25;100519.75;;;12.46;100.00
29163;BME280;20331;53.144;8.208;2023-11-19T11:39:24;100515.09;;;12.54;100.00
29163;BME280;20331;53.144;8.208;2023-11-19T11:45:12;100517.41;;;12.60;100.00
29163;BME280;20331;53.144;8.208;2023-11-19T11:50:36;100513.38;;;12.53;100.00
29163;BME280;20331;53.144;8.208;2023-11-19T11:56:09;100517.81;;;12.51;100.00
29163;BME280;20331;53.144;8.208;2023-11-19T12:01:31;100516.31;;;12.46;100.00
29163;BME280;20331;53.144;8.208;2023-11-19T12:07:12;100519.19;;;12.40;100.00
29163;BME280;20331;53.144;8.208;2023-11-19T12:12:34;100517.69;;;12.34;100.00
29163;BME280;20331;53.144;8.208;2023-11-19T12:17:57;100518.97;;;12.24;100.00
29163;BME280;20331;53.144;8.208;2023-11-19T12:23:19;100517.69;;;12.14;100.00
29163;BME280;20331;53.144;8.208;2023-11-19T12:28:40;100516.22;;;12.07;100.00
29163;BME280;20331;53.144;8.208;2023-11-19T12:34:05;100511.56;;;11.95;100.00
29163;BME280;20331;53.144;8.208;2023-11-19T12:39:30;100514.66;;;11.83;100.00
29163;BME280;20331;53.144;8.208;2023-11-19T12:44:55;100510.59;;;11.76;100.00
29163;BME280;20331;53.144;8.208;2023-11-19T12:50:18;100483.94;;;11.72;100.00
29163;BME280;20331;53.144;8.208;2023-11-19T12:55:40;100484.09;;;11.69;100.00
29163;BME280;20331;53.144;8.208;2023-11-19T13:01:03;100486.75;;;11.68;100.00
29163;BME280;20331;53.144;8.208;2023-11-19T13:06:25;100482.16;;;11.74;100.00
29163;BME280;20331;53.144;8.208;2023-11-19T13:11:47;100486.25;;;11.80;100.00
29163;BME280;20331;53.144;8.208;2023-11-19T13:17:12;100478.22;;;11.86;100.00
29163;BME280;20331;53.144;8.208;2023-11-19T13:22:34;100476.34;;;11.89;100.00
29163;BME280;20331;53.144;8.208;2023-11-19T13:27:56;100475.31;;;11.93;100.00
29163;BME280;20331;53.144;8.208;2023-11-19T13:33:18;100478.88;;;11.91;100.00
29163;BME280;20331;53.144;8.208;2023-11-19T13:38:40;100490.69;;;11.98;100.00
29163;BME280;20331;53.144;8.208;2023-11-19T13:44:03;100487.06;;;12.02;100.00
29163;BME280;20331;53.144;8.208;2023-11-19T13:49:25;100480.06;;;12.04;100.00
29163;BME280;20331;53.144;8.208;2023-11-19T13:54:46;100486.03;;;12.06;100.00
29163;BME280;20331;53.144;8.208;2023-11-19T14:00:09;100478.50;;;12.20;100.00
29163;BME280;20331;53.144;8.208;2023-11-19T14:05:35;100487.69;;;12.27;100.00
29163;BME280;20331;53.144;8.208;2023-11-19T14:10:58;100477.59;;;12.21;100.00
29163;BME280;20331;53.144;8.208;2023-11-19T14:16:20;100470.72;;;12.20;100.00
29163;BME280;20331;53.144;8.208;2023-11-19T14:21:42;100478.44;;;12.22;100.00
29163;BME280;20331;53.144;8.208;2023-11-19T14:27:06;100473.38;;;12.19;100.00
29163;BME280;20331;53.144;8.208;2023-11-19T14:32:27;100484.72;;;12.16;100.00
29163;BME280;20331;53.144;8.208;2023-11-19T14:37:49;100495.09;;;12.16;100.00
29163;BME280;20331;53.144;8.208;2023-11-19T14:43:11;100486.50;;;12.16;100.00
29163;BME280;20331;53.144;8.208;2023-11-19T14:48:32;100490.75;;;12.17;100.00
29163;BME280;20331;53.144;8.208;2023-11-19T14:53:54;100485.00;;;12.10;100.00
29163;BME280;20331;53.144;8.208;2023-11-19T14:59:16;100484.16;;;12.09;100.00
29163;BME280;20331;53.144;8.208;2023-11-19T15:04:37;100483.56;;;12.03;100.00
29163;BME280;20331;53.144;8.208;2023-11-19T15:09:59;100485.38;;;12.01;100.00
29163;BME280;20331;53.144;8.208;2023-11-19T15:15:22;100477.63;;;11.99;100.00
29163;BME280;20331;53.144;8.208;2023-11-19T15:20:46;100486.19;;;12.01;100.00
29163;BME280;20331;53.144;8.208;2023-11-19T15:26:08;100483.81;;;11.97;100.00
29163;BME280;20331;53.144;8.208;2023-11-19T15:31:32;100488.06;;;11.98;100.00
29163;BME280;20331;53.144;8.208;2023-11-19T15:36:53;100491.59;;;11.97;100.00
29163;BME280;20331;53.144;8.208;2023-11-19T15:42:15;100490.81;;;11.95;100.00
29163;BME280;20331;53.144;8.208;2023-11-19T15:47:37;100498.44;;;11.98;100.00
29163;BME280;20331;53.144;8.208;2023-11-19T15:52:59;100504.56;;;11.97;100.00
29163;BME280;20331;53.144;8.208;2023-11-19T15:58:20;100490.69;;;11.98;100.00
29163;BME280;20331;53.144;8.208;2023-11-19T16:03:43;100504.66;;;11.94;100.00
29163;BME280;20331;53.144;8.208;2023-11-19T16:09:08;100503.00;;;11.93;100.00
29163;BME280;20331;53.144;8.208;2023-11-19T16:14:33;100504.66;;;11.94;100.00
29163;BME280;20331;53.144;8.208;2023-11-19T16:19:55;100497.81;;;11.93;100.00
29163;BME280;20331;53.144;8.208;2023-11-19T16:25:16;100500.41;;;11.93;100.00
29163;BME280;20331;53.144;8.208;2023-11-19T16:30:38;100510.69;;;11.94;100.00
29163;BME280;20331;53.144;8.208;2023-11-19T16:36:00;100510.63;;;11.96;100.00
29163;BME280;20331;53.144;8.208;2023-11-19T16:41:22;100511.41;;;11.98;100.00
29163;BME280;20331;53.144;8.208;2023-11-19T16:46:49;100510.63;;;11.96;100.00
29163;BME280;20331;53.144;8.208;2023-11-19T16:52:10;100508.03;;;11.96;100.00
29163;BME280;20331;53.144;8.208;2023-11-19T16:57:33;100520.22;;;11.94;100.00
29163;BME280;20331;53.144;8.208;2023-11-19T17:02:55;100516.88;;;11.92;100.00
29163;BME280;20331;53.144;8.208;2023-11-19T17:08:20;100525.53;;;11.91;100.00
29163;BME280;20331;53.144;8.208;2023-11-19T17:13:42;100527.19;;;11.93;100.00
29163;BME280;20331;53.144;8.208;2023-11-19T17:19:04;100530.72;;;11.91;100.00
29163;BME280;20331;53.144;8.208;2023-11-19T17:24:25;100520.34;;;11.91;100.00
29163;BME280;20331;53.144;8.208;2023-11-19T17:29:47;100520.34;;;11.91;100.00
29163;BME280;20331;53.144;8.208;2023-11-19T17:35:08;100516.88;;;11.92;100.00
29163;BME280;20331;53.144;8.208;2023-11-19T17:40:31;100528.91;;;11.93;100.00
29163;BME280;20331;53.144;8.208;2023-11-19T17:45:52;100534.25;;;11.90;100.00
29163;BME280;20331;53.144;8.208;2023-11-19T17:51:18;100535.31;;;11.84;100.00
29163;BME280;20331;53.144;8.208;2023-11-19T17:56:40;100528.72;;;11.77;100.00
29163;BME280;20331;53.144;8.208;2023-11-19T18:02:02;100534.00;;;11.74;100.00
29163;BME280;20331;53.144;8.208;2023-11-19T18:07:24;100528.88;;;11.73;100.00
29163;BME280;20331;53.144;8.208;2023-11-19T18:12:45;100534.97;;;11.72;100.00
29163;BME280;20331;53.144;8.208;2023-11-19T18:18:07;100535.69;;;11.75;100.00
29163;BME280;20331;53.144;8.208;2023-11-19T18:23:30;100529.53;;;11.78;100.00
29163;BME280;20331;53.144;8.208;2023-11-19T18:28:52;100530.38;;;11.78;100.00
29163;BME280;20331;53.144;8.208;2023-11-19T18:34:14;100525.13;;;11.80;100.00
29163;BME280;20331;53.144;8.208;2023-11-19T18:39:40;100532.19;;;11.76;100.00
29163;BME280;20331;53.144;8.208;2023-11-19T18:45:03;100531.34;;;11.76;100.00
29163;BME280;20331;53.144;8.208;2023-11-19T18:50:25;100527.94;;;11.74;100.00
29163;BME280;20331;53.144;8.208;2023-11-19T18:55:47;100523.09;;;11.66;100.00
29163;BME280;20331;53.144;8.208;2023-11-19T19:01:09;100522.25;;;11.66;100.00
29163;BME280;20331;53.144;8.208;2023-11-19T19:06:32;100518.97;;;11.61;100.00
29163;BME280;20331;53.144;8.208;2023-11-19T19:11:54;100514.59;;;11.61;100.00
29163;BME280;20331;53.144;8.208;2023-11-19T19:17:16;100509.56;;;11.58;100.00
29163;BME280;20331;53.144;8.208;2023-11-19T19:22:37;100503.44;;;11.59;100.00
29163;BME280;20331;53.144;8.208;2023-11-19T19:28:01;100498.34;;;11.58;100.00
29163;BME280;20331;53.144;8.208;2023-11-19T19:33:26;100493.34;;;11.53;100.00
29163;BME280;20331;53.144;8.208;2023-11-19T19:38:48;100495.88;;;11.55;100.00
29163;BME280;20331;53.144;8.208;2023-11-19T19:44:09;100480.31;;;11.55;100.00
29163;BME280;20331;53.144;8.208;2023-11-19T19:49:32;100490.69;;;11.55;100.00
29163;BME280;20331;53.144;8.208;2023-11-19T19:54:54;100494.16;;;11.54;100.00
29163;BME280;20331;53.144;8.208;2023-11-19T20:00:16;100482.19;;;11.51;100.00
29163;BME280;20331;53.144;8.208;2023-11-19T20:05:40;100473.63;;;11.49;100.00
29163;BME280;20331;53.144;8.208;2023-11-19T20:11:05;100474.44;;;11.51;100.00
29163;BME280;20331;53.144;8.208;2023-11-19T20:16:30;100457.78;;;11.57;100.00
29163;BME280;20331;53.144;8.208;2023-11-19T20:21:52;100466.44;;;11.56;100.00
29163;BME280;20331;53.144;8.208;2023-11-19T20:27:14;100453.50;;;11.56;100.00
29163;BME280;20331;53.144;8.208;2023-11-19T20:32:37;100456.00;;;11.59;100.00
29163;BME280;20331;53.144;8.208;2023-11-19T20:37:59;100448.22;;;11.59;100.00
29163;BME280;20331;53.144;8.208;2023-11-19T20:43:22;100448.00;;;11.63;100.00
29163;BME280;20331;53.144;8.208;2023-11-19T20:48:43;100449.81;;;11.61;100.00
29163;BME280;20331;53.144;8.208;2023-11-19T20:54:05;100443.81;;;11.61;100.00
29163;BME280;20331;53.144;8.208;2023-11-19T20:59:27;100442.81;;;11.63;100.00
29163;BME280;20331;53.144;8.208;2023-11-19T21:04:49;100440.31;;;11.62;100.00
29163;BME280;20331;53.144;8.208;2023-11-19T21:10:11;100440.31;;;11.62;100.00
29163;BME280;20331;53.144;8.208;2023-11-19T21:15:36;100427.28;;;11.63;100.00
29163;BME280;20331;53.144;8.208;2023-11-19T21:21:10;100436.94;;;11.60;100.00
29163;BME280;20331;53.144;8.208;2023-11-19T21:26:32;100430.13;;;11.57;100.00
29163;BME280;20331;53.144;8.208;2023-11-19T21:31:54;100428.13;;;11.64;100.00
29163;BME280;20331;53.144;8.208;2023-11-19T21:37:16;100410.81;;;11.66;100.00
29163;BME280;20331;53.144;8.208;2023-11-19T21:42:38;100411.69;;;11.65;100.00
29163;BME280;20331;53.144;8.208;2023-11-19T21:48:00;100400.31;;;11.69;100.00
29163;BME280;20331;53.144;8.208;2023-11-19T21:53:21;100396.81;;;11.70;100.00
29163;BME280;20331;53.144;8.208;2023-11-19T21:58:43;100394.22;;;11.70;100.00
29163;BME280;20331;53.144;8.208;2023-11-19T22:04:05;100401.22;;;11.68;100.00
29163;BME280;20331;53.144;8.208;2023-11-19T22:09:27;100394.34;;;11.67;100.00
29163;BME280;20331;53.144;8.208;2023-11-19T22:14:48;100381.38;;;11.67;100.00
29163;BME280;20331;53.144;8.208;2023-11-19T22:20:10;100379.56;;;11.69;100.00
29163;BME280;20331;53.144;8.208;2023-11-19T22:25:35;100376.78;;;11.73;100.00
29163;BME280;20331;53.144;8.208;2023-11-19T22:30:57;100375.75;;;11.77;100.00
29163;BME280;20331;53.144;8.208;2023-11-19T22:36:19;100384.50;;;11.75;100.00
29163;BME280;20331;53.144;8.208;2023-11-19T22:41:41;100390.56;;;11.74;100.00
29163;BME280;20331;53.144;8.208;2023-11-19T22:47:04;100381.25;;;11.70;100.00
29163;BME280;20331;53.144;8.208;2023-11-19T22:52:26;100381.25;;;11.70;100.00
29163;BME280;20331;53.144;8.208;2023-11-19T22:57:47;100369.19;;;11.69;100.00
29163;BME280;20331;53.144;8.208;2023-11-19T23:03:12;100375.41;;;11.65;100.00
29163;BME280;20331;53.144;8.208;2023-11-19T23:08:34;100370.22;;;11.65;100.00
29163;BME280;20331;53.144;8.208;2023-11-19T23:13:57;100378.09;;;11.62;100.00
29163;BME280;20331;53.144;8.208;2023-11-19T23:19:19;100362.69;;;11.59;100.00
29163;BME280;20331;53.144;8.208;2023-11-19T23:24:41;100365.22;;;11.60;100.00
29163;BME280;20331;53.144;8.208;2023-11-19T23:30:03;100368.78;;;11.58;100.00
29163;BME280;20331;53.144;8.208;2023-11-19T23:35:25;100361.78;;;11.60;100.00
29163;BME280;20331;53.144;8.208;2023-11-19T23:40:47;100364.69;;;11.52;100.00
29163;BME280;20331;53.144;8.208;2023-11-19T23:46:09;100368.84;;;11.56;100.00
29163;BME280;20331;53.144;8.208;2023-11-19T23:51:36;100371.25;;;11.61;100.00
29163;BME280;20331;53.144;8.208;2023-11-19T23:56:58;100369.56;;;11.60;100.00
